Time;durP1;ratioP1;P1;durP2;ratioP2;P2;SDS_P1;SDS_P2;PMS_P1;PMS_P2;Temp;Humidity;BMP_temperature;BMP_pressure;BME280_temperature;BME280_humidity;BME280_pressure;Samples;Min_cycle;Max_cycle;Signal;HPM_P1;HPM_P2
2023/01/08 00:00:26;;;;;;;6.30;2.72;;;;;;;11.94;42.98;100458.59;7398496;19;20455;-60
2023/01/08 00:02:52;;;;;;;5.47;2.58;;;;;;;12.25;42.27;100457.66;7396859;19;19999;-60
2023/01/08 00:05:17;;;;;;;5.30;2.72;;;;;;;12.17;42.63;100450.47;7397584;19;19998;-59
2023/01/08 00:07:43;;;;;;;6.43;2.80;;;;;;;12.11;42.46;100455.44;7395789;19;20002;-59
2023/01/08 00:10:09;;;;;;;4.72;2.60;;;;;;;12.14;42.69;100451.19;7398100;19;19991;-59
2023/01/08 00:12:35;;;;;;;5.82;2.90;;;;;;;12.17;42.49;100458.66;7396354;19;20008;-59
2023/01/08 00:15:00;;;;;;;4.68;2.88;;;;;;;12.15;42.74;100455.50;7397901;19;20024;-59
2023/01/08 00:17:26;;;;;;;5.97;3.00;;;;;;;12.14;42.73;100451.19;7396731;19;20335;-58
2023/01/08 00:19:52;;;;;;;4.78;2.75;;;;;;;12.27;42.49;100454.56;7396134;19;20062;-58
2023/01/08 00:22:18;;;;;;;4.95;2.53;;;;;;;12.14;42.79;100454.72;7394481;19;19998;-58
2023/01/08 00:24:43;;;;;;;4.70;2.50;;;;;;;12.24;42.44;100456.09;7396859;19;20070;-58
2023/01/08 00:27:09;;;;;;;4.35;2.63;;;;;;;12.27;42.81;100451.84;7395979;19;20083;-58
2023/01/08 00:29:36;;;;;;;5.28;2.92;;;;;;;12.27;42.64;100455.34;7397385;19;19998;-58
2023/01/08 00:32:03;;;;;;;4.85;2.65;;;;;;;12.34;42.68;100451.97;7397213;19;19991;-59
2023/01/08 00:34:28;;;;;;;5.95;2.70;;;;;;;12.17;42.76;100445.00;7395084;19;20502;-59
2023/01/08 00:36:54;;;;;;;5.55;2.80;;;;;;;12.29;42.85;100444.84;7397319;19;19998;-59
2023/01/08 00:39:20;;;;;;;5.32;2.50;;;;;;;12.31;42.73;100453.50;7394445;19;20473;-60
2023/01/08 00:41:47;;;;;;;5.25;2.63;;;;;;;12.32;42.93;100441.38;7396585;19;19999;-59
2023/01/08 00:44:12;;;;;;;6.25;2.70;;;;;;;12.38;42.83;100447.38;7395805;19;19999;-59
2023/01/08 00:46:38;;;;;;;5.80;2.83;;;;;;;12.15;43.35;100441.84;7395504;19;19999;-58
2023/01/08 00:49:04;;;;;;;5.53;2.60;;;;;;;12.31;43.02;100445.28;7394010;19;20058;-59
2023/01/08 00:51:30;;;;;;;6.28;2.80;;;;;;;12.43;42.68;100447.06;7396729;19;20040;-59
2023/01/08 00:53:55;;;;;;;4.68;2.40;;;;;;;12.47;42.95;100447.13;7393222;19;20013;-59
2023/01/08 00:56:21;;;;;;;4.85;2.80;;;;;;;12.43;42.95;100447.06;7396165;19;20011;-59
2023/01/08 00:58:47;;;;;;;5.30;2.67;;;;;;;12.14;43.63;100448.44;7394696;19;20002;-59
2023/01/08 01:01:14;;;;;;;6.07;2.78;;;;;;;12.13;43.74;100450.41;7396179;19;19998;-60
2023/01/08 01:03:41;;;;;;;5.47;2.40;;;;;;;12.03;43.86;100445.50;7395395;19;20500;-59
2023/01/08 01:06:07;;;;;;;5.00;2.70;;;;;;;12.29;43.45;100442.13;7395655;19;20007;-59
2023/01/08 01:08:34;;;;;;;5.35;2.75;;;;;;;12.44;43.11;100426.75;7394506;19;19998;-60
2023/01/08 01:10:59;;;;;;;6.60;3.05;;;;;;;12.51;42.89;100426.88;7395568;19;20336;-60
2023/01/08 01:13:25;;;;;;;6.30;2.70;;;;;;;12.39;43.03;100422.38;7394242;19;19999;-59
2023/01/08 01:15:59;;;;;;;5.38;2.92;;;;;;;12.37;43.38;100413.75;7395793;19;20014;-60
2023/01/08 01:18:25;;;;;;;4.50;2.50;;;;;;;12.02;44.18;100416.56;7392847;19;20104;-60
2023/01/08 01:20:51;;;;;;;4.15;2.55;;;;;;;12.27;43.68;100416.25;7395072;19;20499;-59
2023/01/08 01:23:16;;;;;;;4.60;2.60;;;;;;;12.34;43.58;100427.34;7394603;19;20006;-59
2023/01/08 01:25:42;;;;;;;5.65;3.10;;;;;;;12.10;43.96;100422.97;7395199;19;20015;-59
2023/01/08 01:28:08;;;;;;;5.07;2.42;;;;;;;12.30;43.85;100412.81;7393068;19;20516;-59
2023/01/08 01:30:33;;;;;;;4.70;2.47;;;;;;;12.39;43.62;100408.69;7395407;19;19998;-59
2023/01/08 01:32:59;;;;;;;4.80;2.50;;;;;;;12.45;43.58;100417.38;7393995;19;20744;-60
2023/01/08 01:35:25;;;;;;;4.13;2.45;;;;;;;12.42;43.77;100418.09;7395361;19;20006;-59
2023/01/08 01:37:51;;;;;;;4.35;2.30;;;;;;;12.27;44.06;100419.00;7395055;19;20470;-59
2023/01/08 01:40:17;;;;;;;7.20;2.65;;;;;;;12.04;44.74;100414.28;7394169;19;20006;-59
2023/01/08 01:42:43;;;;;;;5.38;2.55;;;;;;;12.08;44.57;100406.91;7393051;19;20010;-60
2023/01/08 01:45:15;;;;;;;5.07;2.53;;;;;;;12.35;44.22;100404.28;7394690;19;19990;-60
2023/01/08 01:47:44;;;;;;;4.65;2.58;;;;;;;12.33;44.12;100403.88;7392811;19;20345;-60
2023/01/08 01:50:10;;;;;;;4.75;2.47;;;;;;;12.36;44.13;100390.25;7392203;19;20002;-59
2023/01/08 01:52:58;;;;;;;5.18;2.55;;;;;;;12.39;44.04;100399.66;7391975;19;20426;-59
2023/01/08 01:55:25;;;;;;;5.82;2.50;;;;;;;12.25;44.42;100404.88;7393238;19;20490;-59
2023/01/08 01:58:12;;;;;;;4.43;2.40;;;;;;;12.34;44.27;100402.69;7393899;19;19999;-60
2023/01/08 02:00:38;;;;;;;5.50;2.40;;;;;;;12.21;44.44;100408.34;7393846;19;20405;-57
2023/01/08 02:03:05;;;;;;;5.35;2.63;;;;;;;12.22;44.68;100418.16;7392522;19;20033;-59
2023/01/08 02:05:50;;;;;;;4.28;2.45;;;;;;;12.25;44.75;100404.88;7395658;19;20057;-59
2023/01/08 02:08:48;;;;;;;5.55;2.47;;;;;;;12.30;44.44;100404.59;7395251;19;20003;-59
2023/01/08 02:11:22;;;;;;;5.32;2.45;;;;;;;12.25;44.74;100402.94;7392434;19;19991;-60
2023/01/08 02:14:12;;;;;;;6.05;2.70;;;;;;;12.41;44.29;100403.63;7393136;19;19998;-59
2023/01/08 02:16:49;;;;;;;4.93;2.65;;;;;;;12.46;44.42;100401.75;7388432;19;20023;-59
2023/01/08 02:19:35;;;;;;;5.20;2.70;;;;;;;12.37;44.52;100399.25;7392471;19;20006;-59
2023/01/08 02:22:17;;;;;;;5.68;2.38;;;;;;;12.54;44.39;100393.31;7393729;19;20343;-58
2023/01/08 02:24:55;;;;;;;4.35;2.22;;;;;;;12.58;44.28;100388.69;7392771;19;20501;-58
2023/01/08 02:27:26;;;;;;;4.43;2.22;;;;;;;12.33;45.02;100387.47;7392059;19;20344;-58
2023/01/08 02:29:53;;;;;;;5.03;2.30;;;;;;;12.32;45.08;100391.34;7392958;19;19999;-59
2023/01/08 02:32:24;;;;;;;4.68;2.42;;;;;;;12.25;44.87;100386.53;7392226;19;19990;-58
2023/01/08 02:34:50;;;;;;;4.55;2.10;;;;;;;12.40;44.87;100393.03;7393107;19;20009;-59
2023/01/08 02:37:16;;;;;;;3.58;2.33;;;;;;;12.59;44.40;100375.78;7392484;19;20002;-57
2023/01/08 02:39:56;;;;;;;4.57;2.53;;;;;;;12.54;44.28;100370.59;7393007;19;20010;-59
2023/01/08 02:42:46;;;;;;;4.65;2.33;;;;;;;12.53;44.56;100369.81;7391228;19;20074;-59
2023/01/08 02:45:27;;;;;;;3.95;2.30;;;;;;;12.26;45.44;100379.09;7392909;19;20021;-58
2023/01/08 02:48:06;;;;;;;4.38;2.40;;;;;;;12.48;44.68;100361.91;7390136;19;20046;-59
2023/01/08 02:50:39;;;;;;;4.70;2.63;;;;;;;12.49;45.08;100376.38;7390249;19;20006;-59
2023/01/08 02:53:07;;;;;;;4.28;2.40;;;;;;;12.39;45.02;100385.97;7390144;19;20014;-59
2023/01/08 02:55:36;;;;;;;4.97;2.20;;;;;;;12.64;44.76;100380.16;7391967;19;20345;-58
2023/01/08 02:58:04;;;;;;;5.65;2.25;;;;;;;12.68;44.45;100378.28;7389463;19;20329;-60
2023/01/08 03:00:31;;;;;;;5.45;2.67;;;;;;;12.66;44.56;100377.84;7390744;19;20002;-58
2023/01/08 03:03:07;;;;;;;4.45;2.33;;;;;;;12.51;44.73;100380.34;7389561;19;20006;-57
2023/01/08 03:05:40;;;;;;;4.28;2.60;;;;;;;12.56;44.66;100374.56;7392459;19;19998;-58
2023/01/08 03:08:08;;;;;;;4.83;2.10;;;;;;;12.59;44.60;100373.84;7389903;19;20014;-58
2023/01/08 03:10:37;;;;;;;4.00;2.13;;;;;;;12.71;44.50;100383.81;7391984;19;19998;-58
2023/01/08 03:13:16;;;;;;;4.28;2.15;;;;;;;12.57;44.52;100381.63;7389308;19;20486;-58
2023/01/08 03:15:48;;;;;;;4.72;2.22;;;;;;;12.43;45.14;100381.38;7389957;19;20017;-58
2023/01/08 03:18:20;;;;;;;4.43;2.50;;;;;;;12.59;44.72;100387.53;7390627;19;19998;-58
2023/01/08 03:20:48;;;;;;;5.00;2.40;;;;;;;12.54;45.06;100381.56;7391922;19;20153;-59
2023/01/08 03:23:16;;;;;;;4.43;2.20;;;;;;;12.61;44.51;100381.69;7390089;19;20007;-58
2023/01/08 03:25:46;;;;;;;3.85;2.38;;;;;;;12.57;44.79;100381.63;7389797;19;19999;-57
2023/01/08 03:28:29;;;;;;;4.50;2.22;;;;;;;12.66;44.48;100383.31;7389274;19;20027;-59
2023/01/08 03:30:57;;;;;;;3.57;2.00;;;;;;;12.54;44.68;100371.41;7389073;19;20081;-58
2023/01/08 03:33:25;;;;;;;5.22;2.22;;;;;;;12.58;44.68;100376.94;7390428;19;20227;-58
2023/01/08 03:35:52;;;;;;;4.28;2.40;;;;;;;12.58;44.57;100372.25;7391064;19;20002;-58
2023/01/08 03:38:26;;;;;;;4.00;2.35;;;;;;;12.68;44.54;100376.31;7390304;19;20031;-58
2023/01/08 03:40:56;;;;;;;4.18;2.10;;;;;;;12.36;45.22;100384.00;7391187;19;19999;-59
2023/01/08 03:43:22;;;;;;;5.32;2.55;;;;;;;12.38;45.22;100379.72;7390273;19;20084;-59
2023/01/08 03:45:53;;;;;;;4.32;2.33;;;;;;;12.51;44.96;100371.34;7388474;19;19999;-58
2023/01/08 03:48:20;;;;;;;4.75;2.20;;;;;;;12.64;44.54;100363.72;7388609;19;20082;-58
2023/01/08 03:50:46;;;;;;;4.00;2.38;;;;;;;12.67;44.75;100352.81;7391145;19;20007;-58
2023/01/08 03:53:12;;;;;;;5.68;2.50;;;;;;;12.60;44.72;100350.75;7389517;19;20036;-57
2023/01/08 03:55:38;;;;;;;5.03;2.50;;;;;;;12.50;45.16;100358.81;7390327;19;20006;-58
2023/01/08 03:58:04;;;;;;;4.40;2.30;;;;;;;12.60;44.67;100356.25;7390001;19;20380;-58
2023/01/08 04:00:30;;;;;;;5.60;2.38;;;;;;;12.68;44.53;100359.13;7389911;19;20027;-58
2023/01/08 04:02:56;;;;;;;5.05;2.10;;;;;;;12.51;44.96;100349.47;7387385;19;20388;-58
2023/01/08 04:05:21;;;;;;;3.92;2.22;;;;;;;12.57;44.65;100351.53;7388679;19;20067;-58
2023/01/08 04:07:47;;;;;;;6.18;2.60;;;;;;;12.66;44.40;100350.47;7386985;19;20038;-59
2023/01/08 04:10:13;;;;;;;4.63;2.40;;;;;;;12.67;44.34;100347.34;7390354;19;20026;-59
2023/01/08 04:12:41;;;;;;;5.22;2.55;;;;;;;12.66;44.64;100344.97;7387275;19;20002;-59
2023/01/08 04:15:08;;;;;;;4.05;2.28;;;;;;;12.63;44.65;100341.03;7390559;19;19998;-58
2023/01/08 04:17:33;;;;;;;5.03;2.33;;;;;;;12.64;44.52;100333.59;7389046;19;20007;-58
2023/01/08 04:19:59;;;;;;;4.97;2.30;;;;;;;12.59;44.52;100332.78;7390445;19;20009;-57
2023/01/08 04:22:25;;;;;;;4.97;2.30;;;;;;;12.25;45.27;100339.22;7388981;19;19999;-58
2023/01/08 04:24:51;;;;;;;4.65;2.33;;;;;;;12.38;45.31;100338.66;7389532;19;20007;-59
2023/01/08 04:27:17;;;;;;;3.83;2.17;;;;;;;12.42;45.02;100336.00;7394695;19;20230;-57
2023/01/08 04:29:42;;;;;;;4.30;2.15;;;;;;;12.50;44.89;100336.91;7397054;19;19991;-59
2023/01/08 04:32:08;;;;;;;4.88;2.10;;;;;;;12.48;44.79;100334.53;7397082;19;20456;-59
2023/01/08 04:34:34;;;;;;;3.97;2.30;;;;;;;12.36;45.01;100332.00;7395386;19;20007;-58
2023/01/08 04:37:00;;;;;;;3.80;2.13;;;;;;;12.40;45.21;100330.09;7396900;19;20061;-57
2023/01/08 04:39:26;;;;;;;4.30;2.28;;;;;;;12.47;45.05;100326.69;7393856;19;20425;-58
2023/01/08 04:41:52;;;;;;;5.78;2.65;;;;;;;12.30;45.48;100327.97;7396860;19;19990;-58
2023/01/08 04:44:17;;;;;;;5.15;2.25;;;;;;;12.41;45.06;100328.97;7395095;19;20018;-58
2023/01/08 04:46:43;;;;;;;4.60;2.30;;;;;;;12.46;44.99;100320.44;7394153;19;19991;-57
2023/01/08 04:49:10;;;;;;;5.45;2.50;;;;;;;12.46;45.03;100319.63;7391984;19;20605;-58
2023/01/08 04:51:36;;;;;;;6.00;2.60;;;;;;;12.49;44.90;100311.50;7397220;19;20010;-59
2023/01/08 04:54:02;;;;;;;5.78;2.30;;;;;;;12.46;44.91;100323.19;7394200;19;20027;-59
2023/01/08 04:56:28;;;;;;;4.78;2.55;;;;;;;12.50;44.86;100302.13;7396353;19;20006;-58
2023/01/08 04:58:54;;;;;;;5.70;2.60;;;;;;;12.48;44.82;100309.13;7393779;19;20338;-58
2023/01/08 05:27:32;;;;;;;4.32;2.15;;;;;;;12.44;45.25;100287.19;7273970;19;20350;-59
2023/01/08 05:29:58;;;;;;;2.95;1.90;;;;;;;12.23;45.49;100280.16;7386466;19;20011;-58
2023/01/08 05:32:24;;;;;;;3.88;2.17;;;;;;;12.26;45.54;100283.31;7397478;19;20341;-58
2023/01/08 05:34:49;;;;;;;4.38;2.40;;;;;;;12.35;45.37;100281.16;7394886;19;20010;-57
2023/01/08 05:37:15;;;;;;;5.03;2.17;;;;;;;12.33;45.43;100280.72;7390783;19;19999;-57
2023/01/08 05:39:41;;;;;;;3.55;2.03;;;;;;;12.24;45.38;100286.47;7394230;19;20002;-57
2023/01/08 05:42:07;;;;;;;4.00;2.15;;;;;;;12.28;45.32;100290.03;7395031;19;19994;-57
2023/01/08 05:44:32;;;;;;;4.57;2.40;;;;;;;12.28;45.46;100289.25;7393796;19;19999;-58
2023/01/08 05:46:58;;;;;;;5.05;2.38;;;;;;;12.25;45.42;100298.19;7393353;19;20008;-58
2023/01/08 05:49:24;;;;;;;3.45;2.17;;;;;;;12.04;46.08;100293.94;7389122;19;20837;-57
2023/01/08 05:51:49;;;;;;;6.30;2.40;;;;;;;12.13;45.90;100290.94;7394462;19;20070;-57
2023/01/08 05:54:16;;;;;;;5.05;2.13;;;;;;;12.23;45.66;100288.38;7393329;19;19995;-58
2023/01/08 05:56:42;;;;;;;4.72;2.50;;;;;;;12.32;45.42;100287.34;7391752;19;20006;-58
2023/01/08 05:59:12;;;;;;;4.18;2.20;;;;;;;12.29;45.65;100277.13;7390745;19;20014;-58
2023/01/08 06:01:38;;;;;;;5.28;2.30;;;;;;;12.29;45.70;100277.94;7390551;19;19998;-57
2023/01/08 06:04:04;;;;;;;5.25;2.38;;;;;;;12.29;45.85;100277.13;7395259;19;20007;-56
2023/01/08 06:06:30;;;;;;;4.68;2.13;;;;;;;12.27;45.65;100269.28;7392863;19;20006;-57
2023/01/08 06:08:56;;;;;;;4.72;2.30;;;;;;;12.41;45.67;100268.75;7390620;19;20012;-57
2023/01/08 06:11:21;;;;;;;4.80;2.20;;;;;;;12.39;45.43;100268.31;7391425;19;20016;-58
2023/01/08 06:13:47;;;;;;;4.03;2.20;;;;;;;12.30;45.74;100267.78;7393812;19;19995;-57
2023/01/08 06:16:13;;;;;;;4.68;2.28;;;;;;;12.41;45.37;100263.28;7391268;19;20001;-58
2023/01/08 06:18:39;;;;;;;4.88;2.28;;;;;;;12.36;45.70;100258.88;7389310;19;20023;-58
2023/01/08 06:21:05;;;;;;;4.85;2.13;;;;;;;12.41;45.42;100264.06;7392732;19;19999;-57
2023/01/08 06:23:31;;;;;;;4.25;2.38;;;;;;;12.56;45.16;100254.13;7394009;19;20026;-58
2023/01/08 06:25:58;;;;;;;4.10;2.00;;;;;;;12.50;45.42;100261.06;7391461;19;20006;-58
2023/01/08 06:28:25;;;;;;;7.28;2.35;;;;;;;12.55;45.14;100257.22;7389986;19;20023;-58
2023/01/08 06:30:51;;;;;;;4.95;2.13;;;;;;;12.51;45.39;100259.13;7392858;19;20002;-57
2023/01/08 06:33:18;;;;;;;5.50;2.17;;;;;;;12.51;45.43;100262.66;7392103;19;20043;-57
2023/01/08 06:35:44;;;;;;;4.05;2.13;;;;;;;12.43;45.41;100252.75;7393528;19;20469;-58
2023/01/08 06:38:10;;;;;;;4.03;1.90;;;;;;;12.28;46.04;100251.72;7391063;19;19995;-58
2023/01/08 06:40:36;;;;;;;4.50;2.03;;;;;;;12.38;45.65;100250.31;7393300;19;19999;-57
2023/01/08 06:43:03;;;;;;;3.78;1.92;;;;;;;12.46;45.55;100254.75;7392642;19;20002;-59
2023/01/08 06:45:29;;;;;;;4.40;2.03;;;;;;;12.41;45.71;100252.31;7392544;19;20010;-57
2023/01/08 06:47:59;;;;;;;3.88;1.90;;;;;;;12.35;45.88;100243.63;7387358;19;20040;-57
2023/01/08 06:50:24;;;;;;;4.35;1.90;;;;;;;12.12;46.57;100240.91;7392263;19;20044;-57
2023/01/08 06:52:54;;;;;;;3.65;1.70;;;;;;;12.04;46.40;100234.53;7392323;19;20363;-57
2023/01/08 06:55:20;;;;;;;3.80;1.90;;;;;;;11.78;47.13;100237.94;7391566;19;20022;-57
2023/01/08 06:57:46;;;;;;;4.20;1.73;;;;;;;11.99;46.52;100240.31;7390816;19;20466;-58
2023/01/08 07:00:12;;;;;;;4.63;1.70;;;;;;;11.88;46.58;100241.28;7391454;19;20003;-58
2023/01/08 07:02:38;;;;;;;6.20;2.00;;;;;;;12.01;46.65;100245.41;7390291;19;20493;-57
2023/01/08 07:05:04;;;;;;;3.72;1.80;;;;;;;12.26;45.96;100239.56;7389618;19;20007;-58
2023/01/08 07:07:30;;;;;;;4.25;1.90;;;;;;;12.21;46.11;100238.72;7389624;19;20027;-58
2023/01/08 07:09:56;;;;;;;4.47;1.90;;;;;;;12.31;45.81;100251.00;7391518;19;20003;-59
2023/01/08 07:12:21;;;;;;;4.40;1.90;;;;;;;12.17;46.25;100258.94;7389655;19;19998;-58
2023/01/08 07:14:47;;;;;;;4.97;2.00;;;;;;;12.32;46.13;100254.50;7391097;19;19994;-58
2023/01/08 07:17:13;;;;;;;4.82;1.90;;;;;;;12.34;46.25;100252.19;7390359;19;20007;-59
2023/01/08 07:19:39;;;;;;;6.70;2.00;;;;;;;12.50;46.16;100249.31;7390717;19;20009;-58
2023/01/08 07:22:05;;;;;;;4.95;2.00;;;;;;;12.46;46.61;100246.53;7391121;19;20078;-59
2023/01/08 07:24:30;;;;;;;4.18;2.00;;;;;;;12.45;46.65;100252.38;7389504;19;20470;-57
2023/01/08 07:26:56;;;;;;;5.32;2.30;;;;;;;12.53;46.54;100248.59;7389492;19;19999;-58
2023/01/08 07:29:22;;;;;;;4.38;2.08;;;;;;;12.45;46.62;100247.69;7388675;19;20105;-57
2023/01/08 07:31:48;;;;;;;5.32;2.00;;;;;;;12.39;46.83;100246.41;7390905;19;20015;-58
2023/01/08 07:34:13;;;;;;;6.05;2.17;;;;;;;12.10;47.48;100248.69;7391041;19;20331;-58
2023/01/08 07:36:39;;;;;;;3.80;1.90;;;;;;;12.15;47.32;100251.13;7390760;19;19995;-58
2023/01/08 07:39:05;;;;;;;2.72;1.60;;;;;;;12.35;47.05;100248.31;7389054;19;20003;-58
2023/01/08 07:41:30;;;;;;;4.03;2.10;;;;;;;12.41;46.98;100263.28;7390381;19;20494;-57
2023/01/08 07:43:56;;;;;;;5.10;2.17;;;;;;;11.99;48.04;100253.16;7388818;19;20011;-58
2023/01/08 07:46:22;;;;;;;4.10;1.98;;;;;;;11.82;48.24;100257.97;7389595;19;20002;-58
2023/01/08 07:48:48;;;;;;;3.72;1.90;;;;;;;12.01;47.80;100259.88;7389225;19;19999;-57
2023/01/08 07:51:14;;;;;;;5.90;2.00;;;;;;;12.20;47.66;100259.00;7390701;19;20347;-57
2023/01/08 07:53:40;;;;;;;4.70;2.00;;;;;;;12.21;47.53;100251.63;7389861;19;19998;-58
2023/01/08 07:56:08;;;;;;;4.63;2.00;;;;;;;12.31;47.19;100252.94;7389993;19;20009;-58
2023/01/08 07:58:34;;;;;;;4.13;2.00;;;;;;;12.23;47.71;100261.03;7387551;19;20003;-58
2023/01/08 08:01:00;;;;;;;4.20;2.20;;;;;;;12.20;47.59;100260.97;7393552;19;20350;-58
2023/01/08 08:03:26;;;;;;;3.13;1.98;;;;;;;11.96;48.05;100253.94;7397873;19;19995;-58
2023/01/08 08:05:52;;;;;;;3.35;1.75;;;;;;;12.14;47.72;100265.97;7398042;19;20330;-58
2023/01/08 08:08:19;;;;;;;5.82;2.00;;;;;;;12.29;47.40;100271.66;7393741;19;19995;-58
2023/01/08 08:10:45;;;;;;;3.15;1.80;;;;;;;12.15;47.85;100267.53;7398600;19;20081;-58
2023/01/08 08:13:12;;;;;;;6.57;1.70;;;;;;;12.29;47.78;100263.44;7396664;19;19999;-57
2023/01/08 08:15:39;;;;;;;4.65;1.60;;;;;;;12.43;47.24;100263.69;7398229;19;20007;-57
2023/01/08 08:18:05;;;;;;;3.90;1.80;;;;;;;12.33;47.47;100264.31;7394906;19;19995;-57
2023/01/08 08:20:31;;;;;;;4.90;1.95;;;;;;;12.35;47.46;100265.50;7397027;19;20002;-58
2023/01/08 08:23:08;;;;;;;3.67;1.63;;;;;;;12.46;47.21;100259.41;7397011;19;20017;-58
2023/01/08 08:25:35;;;;;;;3.65;1.70;;;;;;;12.40;47.56;100258.94;7396756;19;19999;-58
2023/01/08 08:28:02;;;;;;;5.55;1.90;;;;;;;12.34;47.51;100263.13;7393838;19;20014;-58
2023/01/08 08:30:30;;;;;;;3.92;1.88;;;;;;;12.38;47.54;100255.78;7396423;19;20006;-59
2023/01/08 08:32:59;;;;;;;4.00;1.77;;;;;;;12.37;47.70;100251.47;7396439;19;20074;-58
2023/01/08 08:35:25;;;;;;;4.53;1.88;;;;;;;12.38;47.92;100253.06;7394804;19;20097;-59
2023/01/08 08:37:52;;;;;;;5.10;2.13;;;;;;;12.32;47.73;100249.03;7395910;19;20006;-59
2023/01/08 08:40:18;;;;;;;5.07;2.17;;;;;;;12.26;47.89;100253.22;7396128;19;20010;-57
2023/01/08 08:42:44;;;;;;;4.13;1.90;;;;;;;12.21;48.02;100255.13;7395127;19;19998;-58
2023/01/08 08:45:09;;;;;;;5.05;2.47;;;;;;;12.33;47.80;100256.88;7395972;19;20007;-58
2023/01/08 08:47:35;;;;;;;5.57;2.17;;;;;;;12.35;47.66;100248.31;7394079;19;20303;-59
2023/01/08 08:50:02;;;;;;;3.88;1.50;;;;;;;12.34;47.73;100246.72;7395487;19;19999;-57
2023/01/08 08:52:29;;;;;;;5.15;1.95;;;;;;;12.49;47.48;100243.06;7396620;19;20015;-58
2023/01/08 08:54:55;;;;;;;5.82;2.17;;;;;;;12.42;47.54;100248.41;7396231;19;20006;-57
2023/01/08 08:57:22;;;;;;;5.13;2.08;;;;;;;12.51;47.70;100246.22;7394759;19;20006;-59
2023/01/08 08:59:48;;;;;;;5.32;2.10;;;;;;;12.16;48.29;100244.50;7396200;19;20054;-58
2023/01/08 09:02:14;;;;;;;3.97;1.92;;;;;;;12.09;48.48;100236.19;7395211;19;19998;-58
2023/01/08 09:04:40;;;;;;;4.90;1.90;;;;;;;12.39;47.79;100239.00;7395962;19;19999;-58
2023/01/08 09:07:05;;;;;;;6.05;1.60;;;;;;;12.48;47.69;100240.69;7394778;19;20455;-57
2023/01/08 09:09:31;;;;;;;4.40;1.65;;;;;;;12.53;47.73;100246.63;7392970;19;20010;-58
2023/01/08 09:11:58;;;;;;;3.75;1.70;;;;;;;12.32;48.14;100244.34;7392480;19;20070;-58
2023/01/08 09:14:24;;;;;;;4.28;1.70;;;;;;;12.47;47.62;100245.34;7395724;19;20032;-57
2023/01/08 09:16:50;;;;;;;4.50;1.30;;;;;;;12.03;48.41;100245.84;7395023;19;20315;-57
2023/01/08 09:19:16;;;;;;;4.82;1.63;;;;;;;11.93;48.61;100241.75;7392506;19;20019;-58
2023/01/08 09:21:41;;;;;;;4.43;1.70;;;;;;;11.96;48.56;100237.53;7393401;19;20017;-58
2023/01/08 09:24:08;;;;;;;4.38;2.00;;;;;;;12.20;47.83;100241.81;7395077;19;20406;-57
2023/01/08 09:26:33;;;;;;;3.05;1.42;;;;;;;12.28;47.77;100242.72;7395079;19;20003;-57
2023/01/08 09:28:59;;;;;;;2.83;1.45;;;;;;;12.03;47.95;100237.63;7392031;19;20325;-58
2023/01/08 09:31:25;;;;;;;3.08;1.73;;;;;;;12.25;47.43;100227.03;7395552;19;20008;-58
2023/01/08 09:33:51;;;;;;;2.63;1.50;;;;;;;12.34;47.29;100235.78;7394823;19;20003;-57
2023/01/08 09:36:18;;;;;;;4.18;1.80;;;;;;;12.45;47.23;100235.94;7393295;19;19986;-58
2023/01/08 09:38:44;;;;;;;3.70;1.58;;;;;;;12.49;46.75;100243.06;7390074;19;19999;-58
2023/01/08 09:41:21;;;;;;;3.47;1.50;;;;;;;12.54;46.39;100240.00;7395186;19;20322;-58
2023/01/08 09:43:50;;;;;;;2.72;1.42;;;;;;;12.37;46.88;100244.06;7394169;19;20003;-58
2023/01/08 09:46:18;;;;;;;5.80;1.40;;;;;;;12.38;46.66;100247.59;7392618;19;19995;-58
2023/01/08 09:48:45;;;;;;;4.13;1.40;;;;;;;12.38;46.81;100242.09;7392076;19;20025;-57
2023/01/08 09:51:16;;;;;;;4.80;1.50;;;;;;;12.07;47.21;100235.72;7394005;19;20006;-58
2023/01/08 09:53:43;;;;;;;4.15;1.38;;;;;;;12.21;46.85;100238.72;7391670;19;20002;-57
2023/01/08 09:56:13;;;;;;;3.33;1.45;;;;;;;12.39;46.45;100239.00;7394183;19;20005;-57
2023/01/08 09:58:43;;;;;;;2.72;1.42;;;;;;;12.27;46.62;100246.63;7392099;19;20005;-57
2023/01/08 10:01:14;;;;;;;3.65;1.40;;;;;;;12.32;46.59;100238.88;7391516;19;20016;-58
2023/01/08 10:03:54;;;;;;;3.13;1.58;;;;;;;12.38;46.09;100244.84;7394141;19;19999;-58
2023/01/08 10:06:22;;;;;;;4.30;1.50;;;;;;;12.29;46.25;100238.81;7393331;19;20006;-58
2023/01/08 10:08:49;;;;;;;4.00;1.60;;;;;;;12.01;46.76;100234.47;7391456;19;20002;-58
2023/01/08 10:11:15;;;;;;;5.47;1.30;;;;;;;12.00;46.91;100227.41;7393220;19;19998;-57
2023/01/08 10:13:48;;;;;;;4.60;1.48;;;;;;;12.13;46.43;100226.06;7393496;19;20010;-57
2023/01/08 10:16:25;;;;;;;4.72;1.42;;;;;;;12.13;46.18;100220.59;7393088;19;20002;-61
2023/01/08 10:18:51;;;;;;;4.63;1.50;;;;;;;12.10;46.30;100221.31;7389960;19;20078;-57
2023/01/08 10:21:17;;;;;;;5.57;1.33;;;;;;;12.13;46.28;100225.28;7392722;19;20488;-57
2023/01/08 10:23:52;;;;;;;2.95;1.50;;;;;;;11.90;46.70;100230.75;7391883;19;19995;-57
2023/01/08 10:26:28;;;;;;;2.15;1.27;;;;;;;12.06;46.19;100233.34;7392078;19;20335;-57
2023/01/08 10:29:12;;;;;;;3.65;1.65;;;;;;;12.21;45.78;100243.41;7390632;19;20088;-57
2023/01/08 10:31:44;;;;;;;;;;;;;;;11.76;46.84;100228.53;7393730;19;20323;-57
2023/01/08 10:34:17;;;;;;;4.03;1.20;;;;;;;12.08;46.42;100220.91;7392870;19;19947;-58
2023/01/08 10:36:43;;;;;;;3.40;1.42;;;;;;;12.29;45.93;100219.66;7391834;19;20015;-58
2023/01/08 10:39:20;;;;;;;5.05;1.40;;;;;;;12.09;46.09;100213.47;7390497;19;19999;-58
2023/01/08 10:41:47;;;;;;;4.55;1.58;;;;;;;12.23;45.74;100214.50;7392157;19;20006;-57
2023/01/08 10:44:18;;;;;;;2.83;1.38;;;;;;;12.39;45.49;100211.63;7392569;19;20537;-57
2023/01/08 10:46:47;;;;;;;5.32;1.30;;;;;;;12.35;45.32;100207.25;7389256;19;20498;-59
2023/01/08 10:49:18;;;;;;;3.75;1.30;;;;;;;12.39;45.44;100210.81;7388269;19;20002;-57
2023/01/08 10:51:50;;;;;;;5.55;1.52;;;;;;;12.04;45.72;100209.91;7392878;19;20003;-57
2023/01/08 10:54:37;;;;;;;4.07;1.25;;;;;;;12.15;45.44;100207.34;7391728;19;20074;-58
2023/01/08 10:57:19;;;;;;;3.83;1.38;;;;;;;11.94;45.79;100206.97;7391833;19;20347;-58
2023/01/08 10:59:45;;;;;;;3.67;1.25;;;;;;;12.20;45.36;100209.75;7390216;19;20037;-59
2023/01/08 11:02:35;;;;;;;2.15;1.00;;;;;;;12.25;44.80;100196.94;7391960;19;20122;-59
2023/01/08 11:05:03;;;;;;;5.05;1.77;;;;;;;12.35;44.75;100194.34;7391468;19;20016;-58
2023/01/08 11:07:34;;;;;;;2.40;1.17;;;;;;;12.29;44.80;100206.78;7389895;19;19995;-59
2023/01/08 11:10:01;;;;;;;5.25;1.40;;;;;;;12.39;44.42;100197.94;7391109;19;20006;-59
2023/01/08 11:12:36;;;;;;;4.53;1.38;;;;;;;12.55;43.69;100192.31;7391979;19;20003;-59
2023/01/08 11:15:16;;;;;;;4.35;1.83;;;;;;;12.62;43.98;100182.63;7390816;19;20006;-59
2023/01/08 11:17:43;;;;;;;6.40;2.53;;;;;;;12.52;44.12;100192.25;7388493;19;20014;-59
2023/01/08 11:20:20;;;;;;;7.05;2.08;;;;;;;12.30;43.99;100177.47;7390622;19;20014;-58
2023/01/08 11:22:45;;;;;;;5.85;2.08;;;;;;;12.53;43.59;100177.41;7390992;19;20026;-58
2023/01/08 11:25:13;;;;;;;5.20;1.48;;;;;;;12.55;43.04;100177.84;7390259;19;20066;-59
2023/01/08 11:27:43;;;;;;;3.03;1.30;;;;;;;12.32;43.08;100177.88;7389174;19;20405;-58
2023/01/08 11:30:16;;;;;;;3.10;1.38;;;;;;;12.25;43.25;100166.84;7388716;19;20343;-58
2023/01/08 11:32:46;;;;;;;7.22;1.42;;;;;;;12.30;42.56;100172.00;7390919;19;20339;-57
2023/01/08 11:35:41;;;;;;;2.78;1.08;;;;;;;12.30;41.90;100158.31;7388536;19;20062;-58
2023/01/08 11:38:11;;;;;;;5.30;1.05;;;;;;;12.32;42.54;100156.00;7388772;19;20232;-58
2023/01/08 11:40:53;;;;;;;4.30;1.42;;;;;;;12.17;42.11;100157.72;7390692;19;19999;-58
2023/01/08 11:43:58;;;;;;;3.25;1.20;;;;;;;12.56;41.21;100163.00;7390688;19;20003;-57
2023/01/08 11:46:34;;;;;;;;;;;;;;;12.02;41.38;100160.25;7387978;19;20003;-58
2023/01/08 11:49:13;;;;;;;8.35;2.40;;;;;;;12.36;41.20;100156.84;7386860;19;19927;-57
2023/01/08 11:52:30;;;;;;;6.35;1.50;;;;;;;12.21;40.90;100161.31;7389778;19;20010;-58
2023/01/08 11:55:11;;;;;;;6.88;1.10;;;;;;;12.47;41.52;100154.25;7380236;19;20023;-53
2023/01/08 11:58:01;;;;;;;4.63;1.50;;;;;;;12.45;41.08;100138.19;7388290;19;20039;-53
2023/01/08 12:01:02;;;;;;;6.95;1.30;;;;;;;12.48;41.13;100137.47;7390020;19;20023;-53